createdAt,value
2018-07-31T00:00:33.030Z,21.50
2018-07-31T00:03:02.490Z,21.40
2018-07-31T00:05:32.012Z,21.30
2018-07-31T00:08:01.485Z,21.20
2018-07-31T00:10:30.825Z,21.20
2018-07-31T00:13:00.174Z,21.20
2018-07-31T00:15:30.534Z,21.20
2018-07-31T00:17:59.975Z,21.20
2018-07-31T00:20:29.354Z,21.10
2018-07-31T00:22:58.687Z,21.10
2018-07-31T00:25:27.994Z,21.00
2018-07-31T00:27:57.582Z,21.00
2018-07-31T00:30:26.986Z,21.00
2018-07-31T00:32:56.475Z,21.00
2018-07-31T00:35:25.796Z,21.00
2018-07-31T00:37:55.159Z,20.90
2018-07-31T00:40:24.499Z,20.90
2018-07-31T00:42:53.864Z,20.90
2018-07-31T00:45:23.375Z,20.90
2018-07-31T00:47:52.879Z,20.90
2018-07-31T00:50:22.327Z,20.80
2018-07-31T00:52:52.242Z,20.80
2018-07-31T00:55:21.602Z,20.70
2018-07-31T00:57:52.063Z,20.70
2018-07-31T01:00:21.390Z,20.70
2018-07-31T01:02:50.702Z,20.60
2018-07-31T01:05:20.178Z,20.60
2018-07-31T01:07:49.567Z,20.60
2018-07-31T01:10:18.954Z,20.70
2018-07-31T01:12:48.247Z,20.70
2018-07-31T01:15:17.643Z,20.70
2018-07-31T01:17:47.004Z,20.70
2018-07-31T01:20:16.511Z,20.60
2018-07-31T01:22:45.834Z,20.60
2018-07-31T01:25:15.150Z,20.60
2018-07-31T01:27:44.746Z,20.60
2018-07-31T01:30:14.283Z,20.50
2018-07-31T01:32:43.786Z,20.50
2018-07-31T01:35:13.153Z,20.50
2018-07-31T01:37:42.642Z,20.50
2018-07-31T01:40:12.126Z,20.50
2018-07-31T01:42:41.491Z,20.50
2018-07-31T01:45:11.002Z,20.50
2018-07-31T01:47:40.544Z,20.50
2018-07-31T01:50:10.050Z,20.50
2018-07-31T01:52:39.537Z,20.50
2018-07-31T01:55:09.043Z,20.40
2018-07-31T01:57:38.538Z,20.40
2018-07-31T02:00:08.015Z,20.50
2018-07-31T02:02:37.481Z,20.40
2018-07-31T02:05:06.854Z,20.40
2018-07-31T02:07:36.363Z,20.40
2018-07-31T02:10:06.003Z,20.30
2018-07-31T02:12:35.520Z,20.30
2018-07-31T02:15:06.203Z,20.30
2018-07-31T02:17:36.165Z,20.30
2018-07-31T02:20:05.529Z,20.30
2018-07-31T02:22:42.316Z,20.20
2018-07-31T02:25:11.733Z,20.10
2018-07-31T02:27:41.571Z,20.10
2018-07-31T02:30:16.527Z,20.00
2018-07-31T02:32:46.050Z,19.80
2018-07-31T02:35:15.891Z,19.70
2018-07-31T02:37:46.040Z,19.70
2018-07-31T02:40:15.745Z,19.70
2018-07-31T02:42:45.270Z,19.60
2018-07-31T02:45:15.299Z,19.70
2018-07-31T02:47:45.354Z,19.70
2018-07-31T02:50:14.668Z,19.70
2018-07-31T02:52:44.138Z,19.80
2018-07-31T02:55:13.642Z,19.70
2018-07-31T02:57:43.187Z,19.70
2018-07-31T03:00:12.591Z,19.60
2018-07-31T03:02:42.066Z,19.50
2018-07-31T03:05:12.359Z,19.40
2018-07-31T03:07:41.960Z,19.40
2018-07-31T03:10:11.723Z,19.40
2018-07-31T03:12:41.091Z,19.40
2018-07-31T03:15:11.453Z,19.40
2018-07-31T03:17:40.891Z,19.40
2018-07-31T03:20:10.270Z,19.40
2018-07-31T03:22:39.789Z,19.50
2018-07-31T03:25:09.199Z,19.50
2018-07-31T03:27:38.711Z,19.50
2018-07-31T03:30:08.094Z,19.50
2018-07-31T03:32:37.622Z,19.60
2018-07-31T03:35:07.438Z,19.60
2018-07-31T03:37:36.922Z,19.70
2018-07-31T03:40:06.514Z,19.70
2018-07-31T03:42:35.993Z,19.70
2018-07-31T03:45:06.203Z,19.70
2018-07-31T03:47:35.677Z,19.80
2018-07-31T03:50:05.517Z,19.70
2018-07-31T03:52:34.902Z,19.80
2018-07-31T03:55:04.462Z,19.80
2018-07-31T03:57:33.970Z,19.80
2018-07-31T04:00:03.420Z,19.80
2018-07-31T04:04:55.958Z,19.90
2018-07-31T04:07:25.316Z,19.80
2018-07-31T04:09:54.731Z,19.80
2018-07-31T04:12:24.109Z,19.60
2018-07-31T04:14:53.453Z,19.50
2018-07-31T04:17:22.973Z,19.50
2018-07-31T04:19:53.206Z,19.40
2018-07-31T04:22:22.718Z,19.50
2018-07-31T04:27:22.606Z,19.60
2018-07-31T04:39:57.031Z,20.00
2018-07-31T04:42:26.502Z,20.10
2018-07-31T04:44:55.842Z,20.20
2018-07-31T04:47:25.300Z,20.20
2018-07-31T04:49:54.635Z,20.30
2018-07-31T04:52:23.970Z,20.30
2018-07-31T04:54:53.942Z,20.30
2018-07-31T04:57:23.434Z,20.30
2018-07-31T04:59:53.422Z,20.30
2018-07-31T05:02:22.883Z,20.30
2018-07-31T05:07:22.195Z,20.40
2018-07-31T05:09:51.790Z,20.50
2018-07-31T05:12:21.306Z,20.70
2018-07-31T05:14:50.858Z,20.70
2018-07-31T05:17:20.378Z,20.80
2018-07-31T05:19:49.873Z,20.80
2018-07-31T05:22:19.258Z,20.80
2018-07-31T05:24:48.670Z,21.00
2018-07-31T05:27:18.010Z,21.10
2018-07-31T05:29:47.326Z,21.30
2018-07-31T05:32:16.652Z,21.50
2018-07-31T05:34:46.015Z,21.70
2018-07-31T05:37:15.730Z,21.90
2018-07-31T05:39:45.259Z,22.00
2018-07-31T05:42:14.594Z,22.20
2018-07-31T05:44:43.970Z,22.40
2018-07-31T05:47:13.482Z,22.50
2018-07-31T05:49:43.002Z,22.60
2018-07-31T05:52:12.606Z,22.80
2018-07-31T05:54:42.154Z,22.80
2018-07-31T05:57:11.743Z,22.60
2018-07-31T05:59:41.231Z,22.60
2018-07-31T06:02:10.858Z,22.60
2018-07-31T06:04:40.330Z,22.80
2018-07-31T06:07:09.798Z,22.90
2018-07-31T06:09:39.957Z,23.10
2018-07-31T06:12:09.316Z,23.20
2018-07-31T06:14:38.634Z,23.40
2018-07-31T06:17:08.063Z,23.50
2018-07-31T06:19:37.566Z,23.70
2018-07-31T06:22:07.110Z,23.70
2018-07-31T06:24:36.474Z,23.70
2018-07-31T06:27:06.310Z,23.80
2018-07-31T06:29:35.936Z,24.10
2018-07-31T06:32:05.326Z,24.30
2018-07-31T06:34:34.881Z,24.40
2018-07-31T06:37:04.334Z,24.50
2018-07-31T06:39:33.830Z,24.70
2018-07-31T06:42:03.379Z,24.90
2018-07-31T06:44:32.762Z,25.30
2018-07-31T06:47:02.127Z,26.10
2018-07-31T06:49:31.548Z,27.10
2018-07-31T06:52:00.911Z,28.20
2018-07-31T06:54:30.427Z,29.30
2018-07-31T06:56:59.939Z,30.20
2018-07-31T06:59:29.442Z,30.50
2018-07-31T07:01:58.818Z,31.20
2018-07-31T07:04:28.179Z,31.40
2018-07-31T07:06:57.660Z,32.00
2018-07-31T07:09:27.038Z,32.20
2018-07-31T07:11:56.458Z,32.90
2018-07-31T07:14:25.798Z,33.70
2018-07-31T07:16:55.131Z,34.00
2018-07-31T07:19:24.486Z,34.60
2018-07-31T07:21:54.080Z,35.30
2018-07-31T07:24:23.594Z,36.00
2018-07-31T07:26:54.019Z,36.50
2018-07-31T07:29:23.376Z,36.20
2018-07-31T07:31:52.827Z,36.40
2018-07-31T07:34:22.299Z,36.50
2018-07-31T07:36:51.827Z,36.50
2018-07-31T07:39:21.202Z,37.00
2018-07-31T07:41:50.603Z,36.90
2018-07-31T07:44:19.990Z,36.20
2018-07-31T07:46:49.533Z,35.70
2018-07-31T07:49:19.018Z,35.20
2018-07-31T07:51:48.454Z,35.80
2018-07-31T07:54:17.950Z,35.80
2018-07-31T07:56:47.418Z,35.80
2018-07-31T07:59:16.943Z,35.20
2018-07-31T08:01:46.434Z,34.90
2018-07-31T08:04:15.909Z,34.90
2018-07-31T08:06:45.450Z,34.90
2018-07-31T08:09:14.779Z,34.70
2018-07-31T08:11:44.202Z,34.40
2018-07-31T08:14:13.566Z,34.20
2018-07-31T08:16:43.118Z,34.00
2018-07-31T08:19:12.598Z,33.80
2018-07-31T08:21:42.144Z,33.80
2018-07-31T08:24:11.478Z,34.00
2018-07-31T08:26:41.002Z,34.40
2018-07-31T08:29:10.377Z,34.70
2018-07-31T08:31:39.711Z,34.60
2018-07-31T08:34:09.203Z,34.40
2018-07-31T08:36:38.552Z,34.40
2018-07-31T08:39:09.041Z,34.10
2018-07-31T08:41:38.671Z,34.00
2018-07-31T08:44:08.213Z,33.60
2018-07-31T08:46:37.529Z,33.40
2018-07-31T08:49:06.914Z,33.20
2018-07-31T08:51:36.262Z,32.90
2018-07-31T08:54:05.674Z,32.70
2018-07-31T08:56:35.200Z,32.60
2018-07-31T08:59:04.718Z,32.30
2018-07-31T09:01:34.218Z,32.10
2018-07-31T09:04:03.573Z,31.90
2018-07-31T09:06:36.090Z,31.70
2018-07-31T09:09:08.015Z,31.60
2018-07-31T09:11:37.538Z,31.60
2018-07-31T09:14:07.791Z,31.10
2018-07-31T09:16:37.622Z,31.10
2018-07-31T09:19:07.189Z,31.20
2018-07-31T09:21:36.646Z,31.40
2018-07-31T09:24:06.043Z,31.50
2018-07-31T09:26:35.525Z,31.30
2018-07-31T09:29:05.050Z,31.20
2018-07-31T09:31:34.604Z,31.00
2018-07-31T09:34:04.211Z,31.00
2018-07-31T09:36:33.650Z,31.10
2018-07-31T09:39:03.211Z,31.20
2018-07-31T09:41:32.688Z,31.10
2018-07-31T09:44:02.206Z,31.00
2018-07-31T09:46:31.531Z,31.00
2018-07-31T09:49:01.143Z,30.90
2018-07-31T09:51:30.570Z,30.90
2018-07-31T09:54:00.107Z,31.10
2018-07-31T09:56:29.526Z,31.20
2018-07-31T09:58:59.077Z,30.80
2018-07-31T10:01:28.578Z,30.10
2018-07-31T10:03:58.054Z,30.70
2018-07-31T10:06:27.370Z,30.70
2018-07-31T10:08:56.903Z,30.90
2018-07-31T10:11:26.262Z,31.00
2018-07-31T10:13:55.618Z,31.00
2018-07-31T10:16:25.090Z,31.10
2018-07-31T10:18:55.007Z,31.10
2018-07-31T10:21:24.447Z,31.30
2018-07-31T10:23:53.773Z,31.40
2018-07-31T10:26:23.113Z,31.50
2018-07-31T10:28:52.662Z,31.60
2018-07-31T10:31:22.071Z,31.80
2018-07-31T10:33:51.568Z,31.70
2018-07-31T10:36:20.963Z,31.80
2018-07-31T10:38:50.448Z,31.70
2018-07-31T10:41:19.891Z,31.50
2018-07-31T10:43:49.404Z,31.40
2018-07-31T10:46:19.022Z,31.50
2018-07-31T10:48:48.558Z,31.40
2018-07-31T10:51:17.910Z,31.60
2018-07-31T10:53:47.415Z,31.60
2018-07-31T10:56:16.907Z,31.60
2018-07-31T10:58:46.468Z,31.70
2018-07-31T11:01:15.996Z,31.60
2018-07-31T11:03:45.463Z,31.50
2018-07-31T11:06:14.996Z,31.40
2018-07-31T11:08:44.366Z,31.30
2018-07-31T11:11:13.873Z,31.40
2018-07-31T11:13:43.266Z,31.60
2018-07-31T11:16:12.660Z,31.60
2018-07-31T11:18:42.070Z,31.70
2018-07-31T11:21:11.587Z,31.60
2018-07-31T11:23:40.914Z,31.60
2018-07-31T11:26:10.349Z,31.60
2018-07-31T11:28:41.721Z,31.50
2018-07-31T11:31:13.290Z,31.50
2018-07-31T11:33:42.723Z,31.50
2018-07-31T11:36:12.139Z,31.60
2018-07-31T11:38:41.650Z,31.70
2018-07-31T11:41:11.172Z,31.70
2018-07-31T11:43:40.695Z,31.60
2018-07-31T11:46:10.198Z,31.60
2018-07-31T11:48:39.713Z,31.60
2018-07-31T11:51:09.226Z,31.60
2018-07-31T11:53:38.707Z,31.40
2018-07-31T11:56:08.278Z,31.40
2018-07-31T11:58:37.702Z,31.30
2018-07-31T12:01:07.528Z,31.40
2018-07-31T12:03:36.947Z,31.60
2018-07-31T12:06:06.334Z,31.70
2018-07-31T12:08:35.690Z,31.70
2018-07-31T12:11:05.250Z,31.60
2018-07-31T12:13:34.601Z,31.50
2018-07-31T12:16:04.187Z,31.60
2018-07-31T12:18:33.634Z,31.60
2018-07-31T12:21:03.295Z,31.60
2018-07-31T12:23:32.794Z,31.60
2018-07-31T12:26:02.160Z,31.60
2018-07-31T12:28:31.693Z,31.50
2018-07-31T12:31:01.068Z,31.10
2018-07-31T12:33:30.462Z,31.00
2018-07-31T12:35:59.836Z,31.00
2018-07-31T12:38:29.200Z,30.90
2018-07-31T12:40:58.574Z,30.90
2018-07-31T12:43:27.930Z,30.70
2018-07-31T12:45:57.310Z,30.70
2018-07-31T12:48:26.794Z,30.90
2018-07-31T12:50:56.355Z,31.00
2018-07-31T12:53:25.822Z,31.10
2018-07-31T12:55:55.738Z,30.90
2018-07-31T12:58:25.150Z,30.50
2018-07-31T13:00:55.680Z,30.30
2018-07-31T13:03:25.035Z,30.20
2018-07-31T13:08:24.500Z,30.20
2018-07-31T13:10:54.127Z,30.30
2018-07-31T13:13:23.630Z,30.40
2018-07-31T13:15:52.979Z,30.40
2018-07-31T13:18:22.578Z,30.40
2018-07-31T13:20:52.120Z,30.60
2018-07-31T13:23:21.550Z,30.60
2018-07-31T13:25:51.038Z,30.50
2018-07-31T13:28:20.675Z,30.60
2018-07-31T13:30:50.081Z,30.60
2018-07-31T13:33:19.574Z,30.60
2018-07-31T13:35:49.046Z,30.70
2018-07-31T13:38:18.570Z,30.60
2018-07-31T13:40:48.003Z,30.50
2018-07-31T13:43:17.402Z,30.50
2018-07-31T13:45:46.896Z,30.60
2018-07-31T13:48:16.250Z,30.50
2018-07-31T13:50:45.698Z,30.40
2018-07-31T13:53:15.166Z,30.40
2018-07-31T13:55:44.511Z,30.50
2018-07-31T13:58:13.875Z,30.40
2018-07-31T14:00:43.322Z,30.30
2018-07-31T14:03:12.672Z,30.20
2018-07-31T14:05:42.198Z,30.10
2018-07-31T14:08:11.650Z,30.10
2018-07-31T14:10:41.110Z,30.00
2018-07-31T14:13:10.591Z,30.00
2018-07-31T14:15:40.071Z,30.00
2018-07-31T14:18:09.456Z,30.00
2018-07-31T14:20:38.893Z,29.90
2018-07-31T14:23:08.327Z,29.90
2018-07-31T14:25:37.674Z,30.00
2018-07-31T14:28:07.175Z,29.90
2018-07-31T14:30:36.599Z,29.90
2018-07-31T14:33:06.057Z,30.00
2018-07-31T14:35:35.559Z,30.00
2018-07-31T14:38:05.070Z,30.10
2018-07-31T14:40:34.462Z,30.20
2018-07-31T14:43:04.015Z,30.30
2018-07-31T14:45:33.471Z,30.50
2018-07-31T14:48:02.886Z,30.80
2018-07-31T14:50:32.318Z,31.00
2018-07-31T14:53:01.882Z,31.20
2018-07-31T14:55:31.258Z,31.30
2018-07-31T14:58:00.562Z,31.40
2018-07-31T15:00:29.915Z,31.20
2018-07-31T15:02:59.386Z,31.40
2018-07-31T15:05:28.923Z,31.30
2018-07-31T15:07:58.458Z,31.30
2018-07-31T15:10:27.946Z,31.40
2018-07-31T15:12:57.520Z,31.40
2018-07-31T15:15:27.026Z,31.30
2018-07-31T15:17:57.726Z,31.40
2018-07-31T15:20:27.089Z,31.40
2018-07-31T15:22:56.607Z,31.50
2018-07-31T15:25:26.282Z,31.50
2018-07-31T15:27:56.385Z,31.60
2018-07-31T15:30:25.796Z,31.50
2018-07-31T15:32:55.172Z,31.40
2018-07-31T15:35:24.519Z,31.40
2018-07-31T15:37:53.970Z,31.40
2018-07-31T15:40:23.287Z,31.40
2018-07-31T15:42:52.647Z,31.30
2018-07-31T15:45:22.134Z,31.10
2018-07-31T15:47:51.742Z,31.00
2018-07-31T15:50:21.210Z,31.10
2018-07-31T15:52:50.710Z,31.10
2018-07-31T15:55:20.210Z,31.20
2018-07-31T15:57:49.754Z,31.30
2018-07-31T16:00:19.489Z,31.40
2018-07-31T16:02:49.034Z,31.40
2018-07-31T16:05:18.462Z,31.30
2018-07-31T16:07:47.939Z,31.30
2018-07-31T16:10:17.440Z,31.30
2018-07-31T16:12:46.818Z,31.30
2018-07-31T16:15:16.554Z,31.30
2018-07-31T16:17:46.286Z,31.20
2018-07-31T16:20:15.886Z,31.00
2018-07-31T16:22:45.268Z,30.70
2018-07-31T16:25:14.670Z,30.60
2018-07-31T16:27:48.846Z,30.70
2018-07-31T16:30:18.306Z,30.80
2018-07-31T16:32:47.650Z,31.00
2018-07-31T16:35:17.062Z,30.60
2018-07-31T16:37:46.522Z,30.40
2018-07-31T16:40:16.027Z,30.40
2018-07-31T16:42:45.534Z,30.50
2018-07-31T16:45:14.966Z,30.60
2018-07-31T16:47:44.475Z,30.60
2018-07-31T16:50:13.957Z,30.60
2018-07-31T16:52:43.497Z,30.60
2018-07-31T16:55:13.003Z,30.60
2018-07-31T16:57:42.530Z,30.60
2018-07-31T17:00:11.886Z,30.50
2018-07-31T17:02:41.355Z,30.30
2018-07-31T17:05:10.713Z,30.20
2018-07-31T17:07:40.141Z,30.30
2018-07-31T17:10:09.546Z,30.40
2018-07-31T17:12:39.002Z,30.50
2018-07-31T17:15:08.455Z,30.50
2018-07-31T17:17:37.909Z,30.50
2018-07-31T17:20:07.462Z,30.50
2018-07-31T17:22:36.953Z,30.40
2018-07-31T17:25:06.498Z,30.40
2018-07-31T17:27:35.862Z,30.30
2018-07-31T17:30:05.738Z,30.30
2018-07-31T17:32:35.256Z,30.20
2018-07-31T17:35:04.806Z,30.10
2018-07-31T17:37:34.184Z,30.10
2018-07-31T17:40:03.599Z,30.10
2018-07-31T17:42:32.922Z,30.10
2018-07-31T17:45:02.246Z,30.00
2018-07-31T17:47:31.731Z,29.90
2018-07-31T17:50:01.173Z,29.90
2018-07-31T17:52:30.656Z,29.80
2018-07-31T17:55:00.099Z,29.80
2018-07-31T17:57:29.494Z,29.60
2018-07-31T17:59:58.951Z,29.50
2018-07-31T18:02:35.069Z,29.40
2018-07-31T18:05:07.123Z,29.40
2018-07-31T18:07:36.606Z,29.20
2018-07-31T18:10:06.018Z,29.10
2018-07-31T18:12:35.362Z,29.00
2018-07-31T18:15:04.722Z,29.00
2018-07-31T18:17:34.191Z,29.00
2018-07-31T18:20:03.538Z,28.90
2018-07-31T18:22:32.863Z,28.90
2018-07-31T18:25:02.206Z,28.90
2018-07-31T18:27:31.562Z,29.00
2018-07-31T18:30:01.284Z,29.00
2018-07-31T18:32:30.759Z,29.10
2018-07-31T18:35:00.147Z,29.20
2018-07-31T18:37:29.683Z,29.10
2018-07-31T18:39:59.199Z,29.10
2018-07-31T18:42:28.696Z,29.10
2018-07-31T18:44:58.130Z,29.00
2018-07-31T18:47:27.745Z,29.10
2018-07-31T18:49:57.284Z,29.00
2018-07-31T18:52:26.683Z,29.00
2018-07-31T18:54:57.094Z,29.00
2018-07-31T18:57:26.408Z,29.00
2018-07-31T18:59:55.882Z,28.90
2018-07-31T19:02:25.206Z,28.80
2018-07-31T19:04:54.502Z,28.70
2018-07-31T19:07:23.825Z,28.60
2018-07-31T19:09:53.334Z,28.60
2018-07-31T19:12:22.723Z,28.50
2018-07-31T19:14:52.087Z,28.50
2018-07-31T19:17:21.586Z,28.40
2018-07-31T19:19:51.150Z,28.30
2018-07-31T19:22:20.421Z,28.30
2018-07-31T19:24:49.946Z,28.10
2018-07-31T19:27:19.478Z,28.00
2018-07-31T19:29:48.930Z,28.00
2018-07-31T19:32:18.695Z,27.90
2018-07-31T19:34:48.103Z,27.80
2018-07-31T19:37:17.626Z,27.60
2018-07-31T19:39:47.062Z,27.50
2018-07-31T19:42:16.377Z,27.40
2018-07-31T19:44:45.796Z,27.30
2018-07-31T19:47:15.306Z,27.20
2018-07-31T19:49:44.793Z,27.10
2018-07-31T19:52:14.198Z,27.10
2018-07-31T19:54:43.766Z,26.90
2018-07-31T19:57:13.222Z,26.70
2018-07-31T19:59:42.750Z,26.50
2018-07-31T20:02:12.299Z,26.30
2018-07-31T20:04:41.843Z,26.10
2018-07-31T20:07:11.311Z,26.00
2018-07-31T20:09:40.902Z,26.00
2018-07-31T20:12:10.282Z,26.00
2018-07-31T20:14:39.594Z,26.10
2018-07-31T20:17:09.054Z,26.10
2018-07-31T20:19:38.426Z,26.00
2018-07-31T20:22:07.734Z,25.90
2018-07-31T20:24:37.050Z,25.90
2018-07-31T20:27:06.391Z,26.00
2018-07-31T20:29:35.803Z,26.00
2018-07-31T20:32:05.187Z,26.20
2018-07-31T20:34:34.785Z,26.20
2018-07-31T20:37:04.090Z,26.20
2018-07-31T20:39:33.570Z,26.20
2018-07-31T20:42:03.068Z,26.20
2018-07-31T20:44:32.551Z,26.00
2018-07-31T20:47:02.050Z,25.80
2018-07-31T20:49:31.556Z,25.70
2018-07-31T20:52:00.958Z,25.60
2018-07-31T20:54:30.454Z,25.60
2018-07-31T20:56:59.950Z,25.60
2018-07-31T20:59:29.226Z,25.60
2018-07-31T21:01:58.551Z,25.50
2018-07-31T21:04:27.895Z,25.60
2018-07-31T21:06:57.772Z,25.60
2018-07-31T21:09:27.130Z,25.50
2018-07-31T21:11:56.623Z,25.40
2018-07-31T21:14:25.946Z,25.40
2018-07-31T21:16:55.476Z,25.30
2018-07-31T21:19:24.986Z,25.20
2018-07-31T21:21:54.363Z,25.10
2018-07-31T21:24:23.715Z,25.00
2018-07-31T21:26:53.269Z,24.80
2018-07-31T21:29:22.744Z,24.70
2018-07-31T21:31:52.234Z,24.70
2018-07-31T21:34:21.714Z,24.70
2018-07-31T21:36:51.210Z,24.80
2018-07-31T21:39:20.577Z,24.90
2018-07-31T21:41:49.942Z,25.00
2018-07-31T21:44:19.264Z,24.90
2018-07-31T21:46:48.612Z,24.90
2018-07-31T21:49:18.078Z,24.70
2018-07-31T21:51:47.466Z,24.60
2018-07-31T21:54:16.942Z,24.50
2018-07-31T21:56:46.402Z,24.40
2018-07-31T21:59:15.818Z,24.30
2018-07-31T22:01:45.293Z,24.30
2018-07-31T22:04:14.643Z,24.20
2018-07-31T22:06:44.166Z,24.20
2018-07-31T22:09:13.554Z,24.20
2018-07-31T22:11:43.030Z,24.30
2018-07-31T22:14:12.441Z,24.40
2018-07-31T22:16:41.883Z,24.60
2018-07-31T22:19:11.194Z,24.60
2018-07-31T22:21:40.628Z,24.60
2018-07-31T22:24:09.962Z,24.50
2018-07-31T22:26:39.254Z,24.30
2018-07-31T22:29:08.632Z,24.10
2018-07-31T22:31:38.004Z,24.10
2018-07-31T22:34:07.386Z,24.00
2018-07-31T22:36:36.866Z,24.10
2018-07-31T22:39:08.619Z,23.90
2018-07-31T22:41:38.030Z,23.90
2018-07-31T22:44:07.576Z,23.80
2018-07-31T22:46:37.051Z,23.80
2018-07-31T22:49:06.547Z,23.60
2018-07-31T22:51:35.935Z,23.60
2018-07-31T22:54:05.342Z,23.80
2018-07-31T22:56:34.691Z,23.60
2018-07-31T22:59:04.066Z,23.50
2018-07-31T23:01:33.954Z,23.60
2018-07-31T23:04:03.266Z,23.50
2018-07-31T23:06:32.551Z,23.50
2018-07-31T23:09:01.886Z,23.50
2018-07-31T23:11:31.398Z,23.50
2018-07-31T23:14:00.938Z,23.60
2018-07-31T23:16:30.342Z,23.70
2018-07-31T23:18:59.819Z,23.80
2018-07-31T23:21:29.291Z,23.80
2018-07-31T23:23:58.796Z,23.70
2018-07-31T23:26:28.257Z,23.60
2018-07-31T23:28:58.471Z,23.50
2018-07-31T23:31:27.910Z,23.50
2018-07-31T23:33:58.246Z,23.40
2018-07-31T23:36:27.670Z,23.40
2018-07-31T23:38:56.998Z,23.40
2018-07-31T23:41:26.310Z,23.50
2018-07-31T23:43:55.667Z,23.50
2018-07-31T23:46:24.998Z,23.30
2018-07-31T23:48:54.338Z,23.40
2018-07-31T23:51:23.715Z,23.50
2018-07-31T23:53:53.156Z,23.50
2018-07-31T23:56:22.503Z,23.60
2018-07-31T23:58:51.871Z,23.70
